createdAt,value
2022-08-11T00:01:37.100Z,100801.97
2022-08-11T00:04:40.005Z,100785.94
2022-08-11T00:07:48.650Z,100789.97
2022-08-11T00:10:58.727Z,100769.53
2022-08-11T00:14:01.585Z,100783.16
2022-08-11T00:17:10.576Z,100781.16
2022-08-11T00:20:16.849Z,100778.72
2022-08-11T00:23:20.516Z,100774.31
2022-08-11T00:26:24.290Z,100769.91
2022-08-11T00:29:27.013Z,100772.31
2022-08-11T00:32:30.649Z,100765.91
2022-08-11T00:35:56.344Z,100765.47
2022-08-11T00:39:05.539Z,100781.53
2022-08-11T00:42:19.291Z,100763.88
2022-08-11T00:45:32.586Z,100761.41
2022-08-11T00:48:49.629Z,100776.28
2022-08-11T00:52:10.379Z,100775.47
2022-08-11T00:55:55.508Z,100776.28
2022-08-11T00:59:13.285Z,100771.44
2022-08-11T01:03:07.568Z,100779.44
2022-08-11T01:06:39.494Z,100769.81
2022-08-11T01:10:13.399Z,100775.44
2022-08-11T01:13:30.660Z,100769.00
2022-08-11T01:16:45.450Z,100770.62
2022-08-11T01:20:47.573Z,100772.22
2022-08-11T01:23:47.776Z,100756.16
2022-08-11T01:27:21.584Z,100766.59
2022-08-11T01:30:54.937Z,100771.78
2022-08-11T01:34:25.509Z,100754.12
2022-08-11T01:37:53.123Z,100763.78
2022-08-11T01:41:52.759Z,100757.34
2022-08-11T01:45:09.031Z,100748.13
2022-08-11T01:48:42.464Z,100752.50
2022-08-11T01:52:07.001Z,100730.47
2022-08-11T01:55:27.031Z,100747.31
2022-08-11T01:58:58.553Z,100750.53
2022-08-11T02:02:21.408Z,100747.69
2022-08-11T02:06:01.261Z,100754.47
2022-08-11T02:09:06.802Z,100728.03
2022-08-11T02:12:22.718Z,100745.69
2022-08-11T02:15:38.209Z,100719.22
2022-08-11T02:19:04.151Z,100739.28
2022-08-11T02:22:35.583Z,100725.63
2022-08-11T02:25:44.549Z,100742.47
2022-08-11T02:29:03.712Z,100719.59
2022-08-11T02:32:42.613Z,100712.03
2022-08-11T02:35:53.804Z,100733.66
2022-08-11T02:39:04.359Z,100739.25
2022-08-11T02:42:35.105Z,100725.63
2022-08-11T02:46:27.552Z,100733.66
2022-08-11T02:50:02.770Z,100728.03
2022-08-11T02:53:17.895Z,100708.00
2022-08-11T02:56:37.679Z,100717.66
2022-08-11T03:00:11.769Z,100718.84
2022-08-11T03:03:25.717Z,100722.03
2022-08-11T03:06:52.536Z,100725.63
2022-08-11T03:10:17.929Z,100720.00
2022-08-11T03:13:48.502Z,100720.41
2022-08-11T03:17:29.908Z,100721.59
2022-08-11T03:20:43.636Z,100730.75
2022-08-11T03:23:54.855Z,100739.94
2022-08-11T03:27:24.154Z,100707.84
2022-08-11T03:30:39.829Z,100729.53
2022-08-11T03:34:07.239Z,100704.66
2022-08-11T03:37:47.948Z,100725.53
2022-08-11T03:42:04.433Z,100711.44
2022-08-11T03:45:26.332Z,100715.03
2022-08-11T03:49:05.709Z,100733.88
2022-08-11T03:52:48.003Z,100733.88
2022-08-11T03:56:24.856Z,100735.03
2022-08-11T03:59:53.549Z,100739.44
2022-08-11T04:03:31.057Z,100745.03
2022-08-11T04:06:52.920Z,100741.00
2022-08-11T04:10:43.525Z,100734.19
2022-08-11T04:14:30.859Z,100752.59
2022-08-11T04:18:02.299Z,100739.81
2022-08-11T04:21:35.445Z,100746.22
2022-08-11T04:25:29.107Z,100726.56
2022-08-11T04:28:50.958Z,100743.84
2022-08-11T04:32:12.154Z,100747.03
2022-08-11T04:35:23.857Z,100743.06
2022-08-11T04:38:55.010Z,100752.25
2022-08-11T04:42:29.610Z,100748.72
2022-08-11T04:45:39.714Z,100756.72
2022-08-11T04:49:26.163Z,100761.19
2022-08-11T04:53:17.049Z,100765.59
2022-08-11T04:56:45.161Z,100752.81
2022-08-11T05:00:23.288Z,100739.22
2022-08-11T05:03:28.413Z,100762.47
2022-08-11T05:06:36.399Z,100760.09
2022-08-11T05:09:57.674Z,100758.47
2022-08-11T05:13:25.858Z,100761.66
2022-08-11T05:16:59.933Z,100762.47
2022-08-11T05:20:20.842Z,100763.22
2022-08-11T05:23:47.346Z,100763.22
2022-08-11T05:27:13.642Z,100769.19
2022-08-11T05:30:36.437Z,100763.19
2022-08-11T05:34:12.764Z,100771.22
2022-08-11T05:37:40.559Z,100763.19
2022-08-11T05:41:08.388Z,100776.47
2022-08-11T05:44:37.899Z,100772.91
2022-08-11T05:48:00.712Z,100778.12
2022-08-11T05:51:30.399Z,100773.75
2022-08-11T05:54:54.458Z,100756.94
2022-08-11T05:57:59.404Z,100781.03
2022-08-11T06:01:02.386Z,100776.28
2022-08-11T06:04:16.974Z,100775.50
2022-08-11T06:07:29.791Z,100760.31
2022-08-11T06:10:50.256Z,100751.09
2022-08-11T06:13:54.255Z,100775.56
2022-08-11T06:17:00.563Z,100753.91
2022-08-11T06:20:08.154Z,100774.78
2022-08-11T06:23:11.388Z,100768.34
2022-08-11T06:26:15.600Z,100773.53
2022-08-11T06:29:19.413Z,100772.31
2022-08-11T06:32:25.498Z,100769.09
2022-08-11T06:35:38.835Z,100771.09
2022-08-11T06:38:52.928Z,100773.88
2022-08-11T06:42:32.692Z,100771.44
2022-08-11T06:45:51.964Z,100755.00
2022-08-11T06:48:56.207Z,100780.94
2022-08-11T06:52:45.122Z,100756.03
2022-08-11T06:55:58.916Z,100763.13
2022-08-11T06:59:21.604Z,100768.91
2022-08-11T07:02:36.460Z,100753.56
2022-08-11T07:05:47.601Z,100764.56
2022-08-11T07:09:18.010Z,100763.59
2022-08-11T07:12:47.217Z,100767.28
2022-08-11T07:16:11.349Z,100767.94
2022-08-11T07:19:38.070Z,100744.78
2022-08-11T07:23:02.419Z,100774.03
2022-08-11T07:26:29.789Z,100744.75
2022-08-11T07:29:33.451Z,100771.81
2022-08-11T07:32:55.909Z,100756.97
2022-08-11T07:36:01.978Z,100765.03
2022-08-11T07:39:04.594Z,100767.06
2022-08-11T07:42:10.288Z,100761.94
2022-08-11T07:45:34.579Z,100763.22
2022-08-11T07:48:56.051Z,100752.97
2022-08-11T07:52:17.566Z,100765.72
2022-08-11T07:55:51.291Z,100760.59
2022-08-11T07:59:08.381Z,100757.38
2022-08-11T08:02:32.076Z,100759.44
2022-08-11T08:05:53.539Z,100751.81
2022-08-11T08:09:16.028Z,100744.88
2022-08-11T08:12:41.267Z,100753.22
2022-08-11T08:16:02.438Z,100738.84
2022-08-11T08:19:07.126Z,100734.38
2022-08-11T08:22:48.590Z,100746.97
2022-08-11T08:25:41.633Z,100750.56
2022-08-11T08:28:46.591Z,100742.28
2022-08-11T08:31:50.085Z,100738.19
2022-08-11T08:34:55.619Z,100738.56
2022-08-11T08:38:00.759Z,100737.63
2022-08-11T08:41:03.855Z,100747.84
2022-08-11T08:44:35.184Z,100723.22
2022-08-11T08:47:43.495Z,100723.28
2022-08-11T08:51:13.030Z,100721.50
2022-08-11T08:54:34.081Z,100719.50
2022-08-11T08:57:40.254Z,100705.34
2022-08-11T09:00:45.571Z,100717.69
2022-08-11T09:04:05.218Z,100720.31
2022-08-11T09:07:17.155Z,100711.59
2022-08-11T09:10:21.134Z,100710.59
2022-08-11T09:13:23.746Z,100717.78
2022-08-11T09:16:26.659Z,100716.59
2022-08-11T09:19:29.107Z,100688.19
2022-08-11T09:23:19.229Z,100704.28
2022-08-11T09:26:33.740Z,100709.31
2022-08-11T09:29:38.396Z,100689.34
2022-08-11T09:32:42.002Z,100681.56
2022-08-11T09:35:47.279Z,100693.09
2022-08-11T09:39:09.741Z,100690.34
2022-08-11T09:42:16.292Z,100677.87
2022-08-11T09:45:19.283Z,100662.41
2022-08-11T09:48:24.163Z,100684.94
2022-08-11T09:51:31.590Z,100676.25
2022-08-11T09:54:34.401Z,100689.53
2022-08-11T09:57:59.083Z,100678.03
2022-08-11T10:01:03.049Z,100675.62
2022-08-11T10:04:17.619Z,100670.66
2022-08-11T10:07:20.988Z,100665.50
2022-08-11T10:10:24.756Z,100655.19
2022-08-11T10:14:32.051Z,100652.88
2022-08-11T10:16:57.401Z,100665.75
2022-08-11T10:20:05.279Z,100657.72
2022-08-11T10:23:30.799Z,100643.28
2022-08-11T10:26:53.721Z,100662.19
2022-08-11T10:30:15.668Z,100641.41
2022-08-11T10:33:42.955Z,100648.09
2022-08-11T10:37:03.684Z,100637.97
2022-08-11T10:40:07.871Z,100620.19
2022-08-11T10:43:56.809Z,100633.69
2022-08-11T10:46:57.868Z,100644.41
2022-08-11T10:50:41.243Z,100627.34
2022-08-11T10:54:12.765Z,100619.13
2022-08-11T10:57:36.257Z,100606.47
2022-08-11T11:00:38.701Z,100621.53
2022-08-11T11:03:42.765Z,100624.50
2022-08-11T11:07:04.783Z,100612.81
2022-08-11T11:10:09.584Z,100619.06
2022-08-11T11:13:30.783Z,100592.16
2022-08-11T11:16:54.301Z,100604.44
2022-08-11T11:19:58.732Z,100597.88
2022-08-11T11:23:09.029Z,100592.87
2022-08-11T11:26:28.585Z,100590.22
2022-08-11T11:29:57.262Z,100572.69
2022-08-11T11:33:15.212Z,100585.41
2022-08-11T11:36:36.289Z,100575.28
2022-08-11T11:39:39.538Z,100580.16
2022-08-11T11:42:45.444Z,100580.16
2022-08-11T11:45:47.869Z,100570.31
2022-08-11T11:48:50.543Z,100563.59
2022-08-11T11:51:54.789Z,100571.66
2022-08-11T11:54:58.586Z,100568.03
2022-08-11T11:58:22.262Z,100531.69
2022-08-11T12:01:26.284Z,100560.69
2022-08-11T12:04:29.417Z,100546.66
2022-08-11T12:08:05.072Z,100542.37
2022-08-11T12:11:32.272Z,100537.09
2022-08-11T12:14:36.620Z,100544.16
2022-08-11T12:17:40.080Z,100540.41
2022-08-11T12:20:45.230Z,100518.06
2022-08-11T12:24:07.822Z,100531.28
2022-08-11T12:27:25.008Z,100509.94
2022-08-11T12:30:28.998Z,100525.44
2022-08-11T12:33:31.701Z,100513.97
2022-08-11T12:36:39.260Z,100529.19
2022-08-11T12:40:16.047Z,100505.13
2022-08-11T12:43:56.932Z,100508.66
2022-08-11T12:47:02.204Z,100527.34
2022-08-11T12:50:24.267Z,100513.34
2022-08-11T12:53:29.713Z,100510.66
2022-08-11T12:56:57.928Z,100484.66
2022-08-11T13:00:20.503Z,100507.31
2022-08-11T13:03:43.042Z,100502.72
2022-08-11T13:06:45.524Z,100498.94
2022-08-11T13:09:49.126Z,100495.34
2022-08-11T13:12:54.649Z,100488.31
2022-08-11T13:15:58.186Z,100484.25
2022-08-11T13:19:01.311Z,100472.03
2022-08-11T13:22:07.355Z,100479.16
2022-08-11T13:25:10.078Z,100491.91
2022-08-11T13:28:21.222Z,100482.41
2022-08-11T13:31:23.896Z,100463.53
2022-08-11T13:34:27.362Z,100477.09
2022-08-11T13:38:18.563Z,100478.47
2022-08-11T13:40:56.251Z,100478.25
2022-08-11T13:43:59.386Z,100457.59
2022-08-11T13:47:08.664Z,100450.97
2022-08-11T13:50:13.948Z,100467.06
2022-08-11T13:53:20.949Z,100449.53
2022-08-11T13:56:25.205Z,100431.66
2022-08-11T13:59:30.744Z,100466.81
2022-08-11T14:02:34.314Z,100461.72
2022-08-11T14:05:40.894Z,100451.38
2022-08-11T14:08:53.813Z,100461.63
2022-08-11T14:12:24.589Z,100429.34
2022-08-11T14:15:26.913Z,100456.00
2022-08-11T14:18:31.216Z,100450.34
2022-08-11T14:21:55.736Z,100445.25
2022-08-11T14:24:59.103Z,100423.97
2022-08-11T14:28:31.146Z,100443.00
2022-08-11T14:31:25.721Z,100443.81
2022-08-11T14:34:30.190Z,100436.66
2022-08-11T14:37:33.018Z,100429.69
2022-08-11T14:40:54.081Z,100418.94
2022-08-11T14:44:16.069Z,100435.84
2022-08-11T14:47:24.114Z,100422.81
2022-08-11T14:50:30.547Z,100430.91
2022-08-11T14:53:33.148Z,100415.94
2022-08-11T14:56:37.182Z,100410.47
2022-08-11T14:59:40.883Z,100409.47
2022-08-11T15:03:06.350Z,100413.69
2022-08-11T15:06:08.676Z,100428.06
2022-08-11T15:09:11.359Z,100430.34
2022-08-11T15:12:31.510Z,100435.41
2022-08-11T15:16:03.792Z,100408.44
2022-08-11T15:19:08.503Z,100435.97
2022-08-11T15:22:29.971Z,100435.16
2022-08-11T15:25:34.908Z,100436.87
2022-08-11T15:29:02.776Z,100423.97
2022-08-11T15:32:21.684Z,100427.03
2022-08-11T15:35:44.822Z,100430.75
2022-08-11T15:39:19.629Z,100426.72
2022-08-11T15:42:44.465Z,100415.53
2022-08-11T15:45:52.096Z,100413.56
2022-08-11T15:49:10.922Z,100407.34
2022-08-11T15:52:19.613Z,100400.16
2022-08-11T15:55:24.316Z,100408.91
2022-08-11T15:59:27.547Z,100416.72
2022-08-11T16:02:40.767Z,100400.00
2022-08-11T16:05:45.687Z,100422.12
2022-08-11T16:08:50.890Z,100399.69
2022-08-11T16:11:56.937Z,100411.09
2022-08-11T16:15:23.771Z,100415.41
2022-08-11T16:18:40.757Z,100423.00
2022-08-11T16:21:44.746Z,100396.13
2022-08-11T16:27:03.231Z,100409.78
2022-08-11T16:28:16.802Z,100400.25
2022-08-11T16:31:21.784Z,100411.72
2022-08-11T16:34:42.905Z,100368.63
2022-08-11T16:38:05.317Z,100378.22
2022-08-11T16:41:42.135Z,100383.59
2022-08-11T16:45:03.677Z,100397.13
2022-08-11T16:48:35.161Z,100397.63
2022-08-11T16:51:31.861Z,100396.91
2022-08-11T16:54:35.219Z,100381.00
2022-08-11T16:57:57.570Z,100404.16
2022-08-11T17:01:02.507Z,100406.63
2022-08-11T17:04:34.573Z,100390.00
2022-08-11T17:07:58.082Z,100403.59
2022-08-11T17:11:24.207Z,100403.84
2022-08-11T17:14:36.665Z,100390.69
2022-08-11T17:17:40.491Z,100403.97
2022-08-11T17:20:44.309Z,100427.53
2022-08-11T17:23:51.899Z,100434.78
2022-08-11T17:26:57.562Z,100436.44
2022-08-11T17:30:04.159Z,100435.88
2022-08-11T17:33:29.772Z,100429.53
2022-08-11T17:36:34.011Z,100436.66
2022-08-11T17:39:36.821Z,100433.69
2022-08-11T17:42:59.892Z,100454.56
2022-08-11T17:46:08.348Z,100457.13
2022-08-11T17:49:12.992Z,100458.06
2022-08-11T17:52:35.578Z,100455.34
2022-08-11T17:55:58.444Z,100476.59
2022-08-11T17:59:20.984Z,100460.69
2022-08-11T18:02:59.466Z,100471.88
2022-08-11T18:06:04.890Z,100463.19
2022-08-11T18:09:30.795Z,100477.56
2022-08-11T18:12:52.222Z,100472.75
2022-08-11T18:16:13.163Z,100484.03
2022-08-11T18:19:34.607Z,100478.41
2022-08-11T18:22:59.783Z,100489.25
2022-08-11T18:26:23.866Z,100487.25
2022-08-11T18:29:45.747Z,100489.69
2022-08-11T18:33:45.156Z,100470.13
2022-08-11T18:36:59.440Z,100485.72
2022-08-11T18:40:27.518Z,100477.81
2022-08-11T18:43:51.409Z,100495.41
2022-08-11T18:47:15.601Z,100493.41
2022-08-11T18:50:39.776Z,100501.87
2022-08-11T18:54:05.687Z,100475.47
2022-08-11T18:57:27.089Z,100477.91
2022-08-11T19:00:50.418Z,100500.28
2022-08-11T19:04:17.367Z,100495.50
2022-08-11T19:07:41.991Z,100499.16
2022-08-11T19:11:04.355Z,100485.97
2022-08-11T19:14:27.156Z,100482.78
2022-08-11T19:17:51.107Z,100500.34
2022-08-11T19:21:14.480Z,100503.53
2022-08-11T19:24:36.872Z,100497.16
2022-08-11T19:27:59.356Z,100501.16
2022-08-11T19:31:21.659Z,100470.75
2022-08-11T19:34:44.136Z,100498.78
2022-08-11T19:38:06.469Z,100498.78
2022-08-11T19:41:57.185Z,100496.00
2022-08-11T19:45:09.360Z,100491.59
2022-08-11T19:48:32.591Z,100488.44
2022-08-11T19:51:55.743Z,100482.09
2022-08-11T19:55:18.426Z,100481.69
2022-08-11T19:58:39.737Z,100491.72
2022-08-11T20:02:13.592Z,100494.97
2022-08-11T20:05:36.067Z,100493.34
2022-08-11T20:09:01.156Z,100481.78
2022-08-11T20:12:24.510Z,100502.19
2022-08-11T20:15:46.582Z,100477.00
2022-08-11T20:19:09.987Z,100495.00
2022-08-11T20:22:32.993Z,100499.81
2022-08-11T20:26:08.543Z,100493.81
2022-08-11T20:29:44.653Z,100481.47
2022-08-11T20:33:06.801Z,100488.69
2022-08-11T20:36:30.299Z,100501.50
2022-08-11T20:39:52.213Z,100492.69
2022-08-11T20:44:05.165Z,100487.94
2022-08-11T20:46:58.781Z,100492.69
2022-08-11T20:50:21.104Z,100481.56
2022-08-11T20:53:45.378Z,100498.72
2022-08-11T20:57:12.652Z,100485.97
2022-08-11T21:00:38.840Z,100495.97
2022-08-11T21:04:00.910Z,100486.41
2022-08-11T21:07:28.239Z,100482.78
2022-08-11T21:10:52.248Z,100498.00
2022-08-11T21:14:13.808Z,100493.22
2022-08-11T21:17:36.698Z,100510.41
2022-08-11T21:21:20.748Z,100498.41
2022-08-11T21:24:48.395Z,100495.66
2022-08-11T21:28:12.041Z,100504.44
2022-08-11T21:31:34.154Z,100508.84
2022-08-11T21:34:56.594Z,100533.69
2022-08-11T21:38:18.679Z,100526.47
2022-08-11T21:41:40.953Z,100522.44
2022-08-11T21:45:11.724Z,100532.06
2022-08-11T21:48:33.593Z,100532.88
2022-08-11T21:51:54.483Z,100515.28
2022-08-11T21:55:17.186Z,100498.84
2022-08-11T21:58:39.228Z,100536.06
2022-08-11T22:02:02.351Z,100512.88
2022-08-11T22:05:24.788Z,100530.47
2022-08-11T22:08:47.312Z,100530.47
2022-08-11T22:12:33.544Z,100490.88
2022-08-11T22:15:51.002Z,100522.47
2022-08-11T22:19:12.439Z,100537.69
2022-08-11T22:22:34.496Z,100534.47
2022-08-11T22:26:14.199Z,100535.28
2022-08-11T22:29:41.320Z,100529.66
2022-08-11T22:33:15.348Z,100532.84
2022-08-11T22:36:37.091Z,100528.06
2022-08-11T22:40:02.079Z,100518.06
2022-08-11T22:43:24.496Z,100498.88
2022-08-11T22:46:47.991Z,100490.84
2022-08-11T22:50:15.873Z,100516.06
2022-08-11T22:53:57.682Z,100511.66
2022-08-11T22:57:18.731Z,100511.28
2022-08-11T23:00:39.876Z,100514.44
2022-08-11T23:04:01.413Z,100501.66
2022-08-11T23:07:50.434Z,100509.66
2022-08-11T23:11:06.911Z,100493.25
2022-08-11T23:14:28.229Z,100507.66
2022-08-11T23:17:50.969Z,100490.81
2022-08-11T23:21:12.877Z,100498.41
2022-08-11T23:24:35.541Z,100504.03
2022-08-11T23:27:57.532Z,100487.19
2022-08-11T23:31:19.581Z,100505.63
2022-08-11T23:35:04.882Z,100483.19
2022-08-11T23:38:26.449Z,100495.22
2022-08-11T23:41:47.976Z,100470.41
2022-08-11T23:45:09.662Z,100482.41
2022-08-11T23:48:35.511Z,100480.81
2022-08-11T23:51:58.898Z,100475.22
2022-08-11T23:55:21.066Z,100480.00
2022-08-11T23:58:42.124Z,100459.19
